sensor_id;sensor_type;location;lat;lon;timestamp;pressure;altitude;pressure_sealevel;temperature;humidity
5350;BME280;2697;42.144;24.794;2022-12-18T00:00:27;-19439.34;;;10.60;100.00
5350;BME280;2697;42.144;24.794;2022-12-18T00:02:53;-19434.69;;;10.44;100.00
5350;BME280;2697;42.144;24.794;2022-12-18T00:05:18;-19435.44;;;10.46;100.00
5350;BME280;2697;42.144;24.794;2022-12-18T00:07:44;-19436.78;;;10.51;100.00
5350;BME280;2697;42.144;24.794;2022-12-18T00:10:09;-19442.03;;;10.69;100.00
5350;BME280;2697;42.144;24.794;2022-12-18T00:12:34;-19436.94;;;10.51;100.00
5350;BME280;2697;42.144;24.794;2022-12-18T00:15:00;-19435.44;;;10.46;100.00
5350;BME280;2697;42.144;24.794;2022-12-18T00:17:25;-19435.00;;;10.45;100.00
5350;BME280;2697;42.144;24.794;2022-12-18T00:19:50;-19436.50;;;10.50;100.00
5350;BME280;2697;42.144;24.794;2022-12-18T00:22:16;-19427.19;;;10.18;100.00
5350;BME280;2697;42.144;24.794;2022-12-18T00:24:42;-19423.59;;;10.06;100.00
5350;BME280;2697;42.144;24.794;2022-12-18T00:27:08;-19424.63;;;10.10;100.00
5350;BME280;2697;42.144;24.794;2022-12-18T00:29:33;-19425.53;;;10.13;100.00
5350;BME280;2697;42.144;24.794;2022-12-18T00:31:59;-19431.22;;;10.32;100.00
5350;BME280;2697;42.144;24.794;2022-12-18T00:34:24;-19425.06;;;10.11;100.00
5350;BME280;2697;42.144;24.794;2022-12-18T00:36:49;-19419.81;;;9.93;100.00
5350;BME280;2697;42.144;24.794;2022-12-18T00:39:15;-19417.41;;;9.85;100.00
5350;BME280;2697;42.144;24.794;2022-12-18T00:41:40;-19416.22;;;9.81;100.00
5350;BME280;2697;42.144;24.794;2022-12-18T00:44:24;-19415.94;;;9.80;100.00
5350;BME280;2697;42.144;24.794;2022-12-18T00:46:49;-19407.81;;;9.53;100.00
5350;BME280;2697;42.144;24.794;2022-12-18T00:49:17;-19406.31;;;9.48;100.00
5350;BME280;2697;42.144;24.794;2022-12-18T00:51:43;-19406.63;;;9.49;100.00
5350;BME280;2697;42.144;24.794;2022-12-18T00:54:09;-19412.16;;;9.67;100.00
5350;BME280;2697;42.144;24.794;2022-12-18T00:56:38;-19408.72;;;9.56;100.00
5350;BME280;2697;42.144;24.794;2022-12-18T00:59:04;-19411.41;;;9.65;100.00
5350;BME280;2697;42.144;24.794;2022-12-18T01:01:30;-19410.22;;;9.61;100.00
5350;BME280;2697;42.144;24.794;2022-12-18T01:03:55;-19409.03;;;9.57;100.00
5350;BME280;2697;42.144;24.794;2022-12-18T01:06:20;-19411.41;;;9.65;100.00
5350;BME280;2697;42.144;24.794;2022-12-18T01:08:46;-19413.22;;;9.71;100.00
5350;BME280;2697;42.144;24.794;2022-12-18T01:11:14;-19416.97;;;9.84;100.00
5350;BME280;2697;42.144;24.794;2022-12-18T01:13:40;-19414.88;;;9.77;100.00
5350;BME280;2697;42.144;24.794;2022-12-18T01:16:05;-19415.03;;;9.77;100.00
5350;BME280;2697;42.144;24.794;2022-12-18T01:18:31;-19417.41;;;9.85;100.00
5350;BME280;2697;42.144;24.794;2022-12-18T01:20:56;-19418.63;;;9.89;100.00
5350;BME280;2697;42.144;24.794;2022-12-18T01:23:22;-19420.28;;;9.95;100.00
5350;BME280;2697;42.144;24.794;2022-12-18T01:25:48;-19417.72;;;9.86;100.00
5350;BME280;2697;42.144;24.794;2022-12-18T01:28:13;-19419.38;;;9.92;100.00
5350;BME280;2697;42.144;24.794;2022-12-18T01:30:38;-19419.81;;;9.93;100.00
5350;BME280;2697;42.144;24.794;2022-12-18T01:33:05;-19421.63;;;9.99;100.00
5350;BME280;2697;42.144;24.794;2022-12-18T01:35:30;-19422.38;;;10.02;100.00
5350;BME280;2697;42.144;24.794;2022-12-18T01:37:56;-19425.22;;;10.12;100.00
5350;BME280;2697;42.144;24.794;2022-12-18T01:40:21;-19426.59;;;10.16;100.00
5350;BME280;2697;42.144;24.794;2022-12-18T01:42:51;-19423.59;;;10.06;100.00
5350;BME280;2697;42.144;24.794;2022-12-18T01:45:26;-19426.13;;;10.15;100.00
5350;BME280;2697;42.144;24.794;2022-12-18T01:48:02;-19424.03;;;10.08;100.00
5350;BME280;2697;42.144;24.794;2022-12-18T01:50:41;-19428.22;;;10.22;100.00
5350;BME280;2697;42.144;24.794;2022-12-18T01:53:11;-19428.38;;;10.22;100.00
5350;BME280;2697;42.144;24.794;2022-12-18T01:55:46;-19434.53;;;10.43;100.00
5350;BME280;2697;42.144;24.794;2022-12-18T01:58:13;-19426.44;;;10.16;100.00
5350;BME280;2697;42.144;24.794;2022-12-18T02:00:39;-19423.44;;;10.06;100.00
5350;BME280;2697;42.144;24.794;2022-12-18T02:03:04;-19426.28;;;10.15;100.00
5350;BME280;2697;42.144;24.794;2022-12-18T02:05:54;-19426.28;;;10.15;100.00
5350;BME280;2697;42.144;24.794;2022-12-18T02:08:36;-19425.81;;;10.14;100.00
5350;BME280;2697;42.144;24.794;2022-12-18T02:22:09;-19434.25;;;10.42;100.00
5350;BME280;2697;42.144;24.794;2022-12-18T02:27:06;-19433.94;;;10.41;100.00
5350;BME280;2697;42.144;24.794;2022-12-18T02:29:40;-19434.38;;;10.43;100.00
5350;BME280;2697;42.144;24.794;2022-12-18T02:32:11;-19434.25;;;10.42;100.00
5350;BME280;2697;42.144;24.794;2022-12-18T02:34:39;-19435.59;;;10.47;100.00
5350;BME280;2697;42.144;24.794;2022-12-18T02:37:09;-19438.75;;;10.57;100.00
5350;BME280;2697;42.144;24.794;2022-12-18T02:39:38;-19441.59;;;10.67;100.00
5350;BME280;2697;42.144;24.794;2022-12-18T02:42:05;-19439.63;;;10.61;100.00
5350;BME280;2697;42.144;24.794;2022-12-18T02:44:34;-19441.13;;;10.66;100.00
5350;BME280;2697;42.144;24.794;2022-12-18T02:47:00;-19442.63;;;10.71;100.00
5350;BME280;2697;42.144;24.794;2022-12-18T02:49:30;-19445.94;;;10.82;100.00
5350;BME280;2697;42.144;24.794;2022-12-18T02:57:57;-19429.75;;;10.27;100.00
5350;BME280;2697;42.144;24.794;2022-12-18T03:00:39;-19423.13;;;10.05;100.00
5350;BME280;2697;42.144;24.794;2022-12-18T03:03:11;-19418.94;;;9.90;100.00
5350;BME280;2697;42.144;24.794;2022-12-18T03:05:43;-19412.78;;;9.69;100.00
5350;BME280;2697;42.144;24.794;2022-12-18T03:08:28;-19400.31;;;9.27;100.00
5350;BME280;2697;42.144;24.794;2022-12-18T03:11:03;-19403.91;;;9.39;100.00
5350;BME280;2697;42.144;24.794;2022-12-18T03:13:35;-19404.06;;;9.40;100.00
5350;BME280;2697;42.144;24.794;2022-12-18T03:16:03;-19407.22;;;9.51;100.00
5350;BME280;2697;42.144;24.794;2022-12-18T03:19:14;-19405.72;;;9.46;100.00
5350;BME280;2697;42.144;24.794;2022-12-18T03:21:43;-19406.31;;;9.48;100.00
5350;BME280;2697;42.144;24.794;2022-12-18T03:24:10;-19402.56;;;9.35;100.00
5350;BME280;2697;42.144;24.794;2022-12-18T03:26:40;-19397.59;;;9.18;100.00
5350;BME280;2697;42.144;24.794;2022-12-18T03:29:12;-19400.16;;;9.27;100.00
5350;BME280;2697;42.144;24.794;2022-12-18T03:31:42;-19403.91;;;9.39;100.00
5350;BME280;2697;42.144;24.794;2022-12-18T03:34:16;-19408.41;;;9.55;100.00
5350;BME280;2697;42.144;24.794;2022-12-18T03:36:44;-19410.06;;;9.60;100.00
5350;BME280;2697;42.144;24.794;2022-12-18T03:39:10;-19408.72;;;9.56;100.00
5350;BME280;2697;42.144;24.794;2022-12-18T03:41:51;-19409.63;;;9.59;100.00
5350;BME280;2697;42.144;24.794;2022-12-18T03:44:29;-19412.31;;;9.68;100.00
5350;BME280;2697;42.144;24.794;2022-12-18T03:47:06;-19417.56;;;9.86;100.00
5350;BME280;2697;42.144;24.794;2022-12-18T03:52:29;-19423.13;;;10.05;100.00
5350;BME280;2697;42.144;24.794;2022-12-18T03:54:56;-19426.88;;;10.17;100.00
5350;BME280;2697;42.144;24.794;2022-12-18T03:57:26;-19429.75;;;10.27;100.00
5350;BME280;2697;42.144;24.794;2022-12-18T04:00:04;-19431.22;;;10.32;100.00
5350;BME280;2697;42.144;24.794;2022-12-18T04:02:31;-19434.38;;;10.43;100.00
5350;BME280;2697;42.144;24.794;2022-12-18T04:05:01;-19435.59;;;10.47;100.00
5350;BME280;2697;42.144;24.794;2022-12-18T04:07:28;-19434.53;;;10.43;100.00
5350;BME280;2697;42.144;24.794;2022-12-18T04:09:55;-19436.78;;;10.51;100.00
5350;BME280;2697;42.144;24.794;2022-12-18T04:12:24;-19439.34;;;10.60;100.00
5350;BME280;2697;42.144;24.794;2022-12-18T04:14:51;-19437.84;;;10.54;100.00
5350;BME280;2697;42.144;24.794;2022-12-18T04:17:17;-19438.88;;;10.58;100.00
5350;BME280;2697;42.144;24.794;2022-12-18T04:19:42;-19437.69;;;10.54;100.00
5350;BME280;2697;42.144;24.794;2022-12-18T04:22:09;-19439.94;;;10.62;100.00
5350;BME280;2697;42.144;24.794;2022-12-18T04:24:35;-19438.44;;;10.56;100.00
5350;BME280;2697;42.144;24.794;2022-12-18T04:27:01;-19437.84;;;10.54;100.00
5350;BME280;2697;42.144;24.794;2022-12-18T04:29:26;-19437.69;;;10.54;100.00
5350;BME280;2697;42.144;24.794;2022-12-18T04:31:52;-19438.44;;;10.56;100.00
5350;BME280;2697;42.144;24.794;2022-12-18T04:34:17;-19436.94;;;10.51;100.00
5350;BME280;2697;42.144;24.794;2022-12-18T04:36:42;-19436.34;;;10.49;100.00
5350;BME280;2697;42.144;24.794;2022-12-18T04:39:08;-19435.59;;;10.47;100.00
5350;BME280;2697;42.144;24.794;2022-12-18T04:41:33;-19436.03;;;10.48;100.00
5350;BME280;2697;42.144;24.794;2022-12-18T04:43:58;-19435.75;;;10.47;100.00
5350;BME280;2697;42.144;24.794;2022-12-18T04:46:24;-19432.00;;;10.35;100.00
5350;BME280;2697;42.144;24.794;2022-12-18T04:48:49;-19429.75;;;10.27;100.00
5350;BME280;2697;42.144;24.794;2022-12-18T04:51:14;-19430.34;;;10.29;100.00
5350;BME280;2697;42.144;24.794;2022-12-18T04:53:40;-19427.34;;;10.19;100.00
5350;BME280;2697;42.144;24.794;2022-12-18T04:56:11;-19425.53;;;10.13;100.00
5350;BME280;2697;42.144;24.794;2022-12-18T04:58:39;-19427.78;;;10.20;100.00
5350;BME280;2697;42.144;24.794;2022-12-18T05:01:05;-19425.22;;;10.12;100.00
5350;BME280;2697;42.144;24.794;2022-12-18T05:03:30;-19423.72;;;10.07;100.00
5350;BME280;2697;42.144;24.794;2022-12-18T05:05:56;-19424.03;;;10.08;100.00
5350;BME280;2697;42.144;24.794;2022-12-18T05:08:21;-19420.13;;;9.94;100.00
5350;BME280;2697;42.144;24.794;2022-12-18T05:10:47;-19419.22;;;9.91;100.00
5350;BME280;2697;42.144;24.794;2022-12-18T05:13:12;-19418.31;;;9.88;100.00
5350;BME280;2697;42.144;24.794;2022-12-18T05:15:37;-19422.81;;;10.04;100.00
5350;BME280;2697;42.144;24.794;2022-12-18T05:18:03;-19419.81;;;9.93;100.00
5350;BME280;2697;42.144;24.794;2022-12-18T05:20:29;-19417.28;;;9.91;100.00
5350;BME280;2697;42.144;24.794;2022-12-18T05:22:55;-16748.69;;;9.91;100.00
5350;BME280;2697;42.144;24.794;2022-12-18T05:25:21;-15079.38;;;9.88;100.00
5350;BME280;2697;42.144;24.794;2022-12-18T05:27:47;-13411.09;;;9.94;100.00
5350;BME280;2697;42.144;24.794;2022-12-18T05:30:13;-12407.28;;;9.84;100.00
5350;BME280;2697;42.144;24.794;2022-12-18T05:32:39;-14413.47;;;9.96;100.00
5350;BME280;2697;42.144;24.794;2022-12-18T05:35:06;-15083.63;;;10.07;100.00
5350;BME280;2697;42.144;24.794;2022-12-18T05:37:32;-14748.56;;;10.02;100.00
5350;BME280;2697;42.144;24.794;2022-12-18T05:39:58;-12747.00;;;10.15;100.00
5350;BME280;2697;42.144;24.794;2022-12-18T05:42:23;-11074.56;;;10.07;100.00
5350;BME280;2697;42.144;24.794;2022-12-18T05:44:49;-10405.69;;;10.05;100.00
5350;BME280;2697;42.144;24.794;2022-12-18T05:47:14;-8065.50;;;10.10;100.00
5350;BME280;2697;42.144;24.794;2022-12-18T05:49:39;-6392.69;;;10.13;100.00
5350;BME280;2697;42.144;24.794;2022-12-18T05:52:05;-3044.19;;;10.10;100.00
5350;BME280;2697;42.144;24.794;2022-12-18T05:54:30;-1368.97;;;10.14;100.00
5350;BME280;2697;42.144;24.794;2022-12-18T05:56:57;-28.25;;;10.11;100.00
5350;BME280;2697;42.144;24.794;2022-12-18T05:59:22;-1033.84;;;10.14;100.00
5350;BME280;2697;42.144;24.794;2022-12-18T06:01:47;-363.50;;;10.09;100.00
5350;BME280;2697;42.144;24.794;2022-12-18T06:04:13;-363.41;;;10.17;100.00
5350;BME280;2697;42.144;24.794;2022-12-18T06:06:38;2655.34;;;10.23;100.00
5350;BME280;2697;42.144;24.794;2022-12-18T06:09:04;5676.81;;;10.27;100.00
5350;BME280;2697;42.144;24.794;2022-12-18T06:11:35;7691.84;;;10.24;100.00
5350;BME280;2697;42.144;24.794;2022-12-18T06:14:02;11052.28;;;10.20;100.00
5350;BME280;2697;42.144;24.794;2022-12-18T06:16:28;11055.44;;;10.36;100.00
5350;BME280;2697;42.144;24.794;2022-12-18T06:18:57;12397.28;;;10.19;100.00
5350;BME280;2697;42.144;24.794;2022-12-18T06:21:23;12063.16;;;10.29;100.00
5350;BME280;2697;42.144;24.794;2022-12-18T06:23:48;13746.44;;;10.33;100.00
5350;BME280;2697;42.144;24.794;2022-12-18T06:26:14;16440.69;;;10.36;100.00
5350;BME280;2697;42.144;24.794;2022-12-18T06:28:40;21834.88;;;10.40;100.00
5350;BME280;2697;42.144;24.794;2022-12-18T06:31:06;24201.69;;;10.52;100.00
5350;BME280;2697;42.144;24.794;2022-12-18T06:33:32;30621.81;;;10.54;100.00
5350;BME280;2697;42.144;24.794;2022-12-18T06:36:02;30961.03;;;10.56;100.00
5350;BME280;2697;42.144;24.794;2022-12-18T06:38:28;38401.34;;;10.46;100.00
5350;BME280;2697;42.144;24.794;2022-12-18T06:40:54;35697.41;;;10.55;100.00
5350;BME280;2697;42.144;24.794;2022-12-18T06:43:19;39425.19;;;10.57;100.00
5350;BME280;2697;42.144;24.794;2022-12-18T06:45:45;40106.84;;;10.63;100.00
5350;BME280;2697;42.144;24.794;2022-12-18T06:48:11;39768.88;;;10.65;100.00
5350;BME280;2697;42.144;24.794;2022-12-18T06:50:36;46897.06;;;10.69;100.00
5350;BME280;2697;42.144;24.794;2022-12-18T06:53:02;51659.38;;;10.74;100.00
5350;BME280;2697;42.144;24.794;2022-12-18T06:55:27;58460.84;;;10.69;100.00
5350;BME280;2697;42.144;24.794;2022-12-18T06:57:52;56075.41;;;10.67;100.00
5350;BME280;2697;42.144;24.794;2022-12-18T07:00:18;52670.72;;;10.64;100.00
5350;BME280;2697;42.144;24.794;2022-12-18T07:02:43;54374.75;;;10.68;100.00
5350;BME280;2697;42.144;24.794;2022-12-18T07:05:09;58458.88;;;10.67;100.00
5350;BME280;2697;42.144;24.794;2022-12-18T07:07:34;53015.75;;;10.70;100.00
5350;BME280;2697;42.144;24.794;2022-12-18T07:10:00;48591.38;;;10.64;100.00
5350;BME280;2697;42.144;24.794;2022-12-18T07:12:27;45870.53;;;10.59;100.00
5350;BME280;2697;42.144;24.794;2022-12-18T07:14:52;43841.69;;;10.69;100.00
5350;BME280;2697;42.144;24.794;2022-12-18T07:17:17;43160.47;;;10.65;100.00
5350;BME280;2697;42.144;24.794;2022-12-18T07:19:43;42153.22;;;10.80;100.00
5350;BME280;2697;42.144;24.794;2022-12-18T07:22:08;45882.66;;;10.74;100.00
5350;BME280;2697;42.144;24.794;2022-12-18T07:24:33;45201.28;;;10.71;100.00
5350;BME280;2697;42.144;24.794;2022-12-18T07:26:59;39771.91;;;10.69;100.00
5350;BME280;2697;42.144;24.794;2022-12-18T07:29:25;39429.56;;;10.64;100.00
5350;BME280;2697;42.144;24.794;2022-12-18T07:31:50;40105.09;;;10.61;100.00
5350;BME280;2697;42.144;24.794;2022-12-18T07:34:16;43489.38;;;10.51;100.00
5350;BME280;2697;42.144;24.794;2022-12-18T07:36:42;43146.50;;;10.46;100.00
5350;BME280;2697;42.144;24.794;2022-12-18T07:39:08;46204.50;;;10.51;100.00
5350;BME280;2697;42.144;24.794;2022-12-18T07:41:33;55038.47;;;10.49;100.00
5350;BME280;2697;42.144;24.794;2022-12-18T07:43:59;71409.38;;;10.55;100.00
5350;BME280;2697;42.144;24.794;2022-12-18T07:46:24;77566.97;;;10.58;100.00
5350;BME280;2697;42.144;24.794;2022-12-18T07:48:50;74496.72;;;10.65;100.00
5350;BME280;2697;42.144;24.794;2022-12-18T07:51:16;76891.78;;;10.65;100.00
5350;BME280;2697;42.144;24.794;2022-12-18T07:53:41;83048.47;;;10.60;100.00
5350;BME280;2697;42.144;24.794;2022-12-18T07:56:11;86830.56;;;10.68;100.00
5350;BME280;2697;42.144;24.794;2022-12-18T07:58:37;82037.28;;;10.72;100.00
5350;BME280;2697;42.144;24.794;2022-12-18T08:01:04;91635.81;;;10.68;100.00
5350;BME280;2697;42.144;24.794;2022-12-18T08:03:30;91642.03;;;10.72;100.00
5350;BME280;2697;42.144;24.794;2022-12-18T08:06:03;97477.66;;;10.67;100.00
5350;BME280;2697;42.144;24.794;2022-12-18T08:08:29;96114.38;;;10.75;100.00
5350;BME280;2697;42.144;24.794;2022-12-18T08:10:55;107135.50;;;10.76;100.00
5350;BME280;2697;42.144;24.794;2022-12-18T08:13:21;121638.88;;;10.74;100.00
5350;BME280;2697;42.144;24.794;2022-12-18T08:15:46;126159.84;;;10.84;100.00
5350;BME280;2697;42.144;24.794;2022-12-18T08:18:20;134142.81;;;10.87;100.00
5350;BME280;2697;42.144;24.794;2022-12-18T08:20:45;129968.22;;;10.82;100.00
5350;BME280;2697;42.144;24.794;2022-12-18T08:23:10;134479.75;;;10.82;100.00
5350;BME280;2697;42.144;24.794;2022-12-18T08:25:36;141434.53;;;10.85;100.00
5350;BME280;2697;42.144;24.794;2022-12-18T08:28:01;142134.88;;;10.87;100.00
5350;BME280;2697;42.144;24.794;2022-12-18T08:30:26;148238.50;;;10.93;100.00
5350;BME280;2697;42.144;24.794;2022-12-18T08:32:52;155059.28;;;10.90;100.00
5350;BME280;2697;42.144;24.794;2022-12-18T08:35:18;155382.19;;;10.92;100.00
5350;BME280;2697;42.144;24.794;2022-12-18T08:37:43;155388.75;;;10.94;100.00
5350;BME280;2697;42.144;24.794;2022-12-18T08:40:09;155375.59;;;10.89;100.00
5350;BME280;2697;42.144;24.794;2022-12-18T08:42:35;155362.41;;;10.84;100.00
5350;BME280;2697;42.144;24.794;2022-12-18T08:45:19;155358.47;;;10.82;100.00
5350;BME280;2697;42.144;24.794;2022-12-18T08:47:44;155399.31;;;10.98;100.00
5350;BME280;2697;42.144;24.794;2022-12-18T08:50:09;155401.94;;;10.99;100.00
5350;BME280;2697;42.144;24.794;2022-12-18T08:52:37;155391.38;;;10.95;100.00
5350;BME280;2697;42.144;24.794;2022-12-18T08:55:02;155399.31;;;10.98;100.00
5350;BME280;2697;42.144;24.794;2022-12-18T08:57:27;155433.53;;;11.11;100.00
5350;BME280;2697;42.144;24.794;2022-12-18T08:59:53;155429.59;;;11.10;100.00
5350;BME280;2697;42.144;24.794;2022-12-18T09:02:18;155424.34;;;11.08;100.00
5350;BME280;2697;42.144;24.794;2022-12-18T09:04:46;155461.19;;;11.22;100.00
5350;BME280;2697;42.144;24.794;2022-12-18T09:07:12;155436.16;;;11.12;100.00
5350;BME280;2697;42.144;24.794;2022-12-18T09:09:37;155462.50;;;11.23;100.00
5350;BME280;2697;42.144;24.794;2022-12-18T09:12:03;155475.72;;;11.28;100.00
5350;BME280;2697;42.144;24.794;2022-12-18T09:14:28;155454.63;;;11.20;100.00
5350;BME280;2697;42.144;24.794;2022-12-18T09:16:54;155475.72;;;11.28;100.00
5350;BME280;2697;42.144;24.794;2022-12-18T09:19:19;155484.91;;;11.31;100.00
5350;BME280;2697;42.144;24.794;2022-12-18T09:21:45;155459.88;;;11.22;100.00
5350;BME280;2697;42.144;24.794;2022-12-18T09:24:16;155428.28;;;11.09;100.00
5350;BME280;2697;42.144;24.794;2022-12-18T09:26:42;155465.13;;;11.24;100.00
5350;BME280;2697;42.144;24.794;2022-12-18T09:29:07;155466.47;;;11.24;100.00
5350;BME280;2697;42.144;24.794;2022-12-18T09:31:33;155446.69;;;11.17;100.00
5350;BME280;2697;42.144;24.794;2022-12-18T09:33:58;155452.00;;;11.19;100.00
5350;BME280;2697;42.144;24.794;2022-12-18T09:36:24;155441.44;;;11.14;100.00
5350;BME280;2697;42.144;24.794;2022-12-18T09:38:50;155453.31;;;11.19;100.00
5350;BME280;2697;42.144;24.794;2022-12-18T09:44:03;155449.38;;;11.18;100.00
5350;BME280;2697;42.144;24.794;2022-12-18T09:46:33;155457.25;;;11.21;100.00
5350;BME280;2697;42.144;24.794;2022-12-18T09:49:02;155445.38;;;11.16;100.00
5350;BME280;2697;42.144;24.794;2022-12-18T09:51:37;155448.06;;;11.17;100.00
5350;BME280;2697;42.144;24.794;2022-12-18T09:54:10;155475.72;;;11.28;100.00
5350;BME280;2697;42.144;24.794;2022-12-18T09:56:40;155494.13;;;11.35;100.00
5350;BME280;2697;42.144;24.794;2022-12-18T10:01:42;155482.28;;;11.30;100.00
5350;BME280;2697;42.144;24.794;2022-12-18T10:04:08;155488.84;;;11.33;100.00
5350;BME280;2697;42.144;24.794;2022-12-18T10:06:35;155467.78;;;11.25;100.00
5350;BME280;2697;42.144;24.794;2022-12-18T10:09:12;155463.81;;;11.23;100.00
5350;BME280;2697;42.144;24.794;2022-12-18T10:11:47;155494.13;;;11.35;100.00
5350;BME280;2697;42.144;24.794;2022-12-18T10:14:24;155487.53;;;11.32;100.00
5350;BME280;2697;42.144;24.794;2022-12-18T10:19:40;155454.63;;;11.20;100.00
5350;BME280;2697;42.144;24.794;2022-12-18T10:22:29;155478.34;;;11.29;100.00
5350;BME280;2697;42.144;24.794;2022-12-18T10:27:52;155490.16;;;11.33;100.00
5350;BME280;2697;42.144;24.794;2022-12-18T10:30:20;155457.25;;;11.21;100.00
5350;BME280;2697;42.144;24.794;2022-12-18T10:32:46;155478.34;;;11.29;100.00
5350;BME280;2697;42.144;24.794;2022-12-18T10:35:19;155453.31;;;11.19;100.00
5350;BME280;2697;42.144;24.794;2022-12-18T10:41:04;155483.59;;;11.31;100.00
5350;BME280;2697;42.144;24.794;2022-12-18T10:43:39;155459.88;;;11.22;100.00
5350;BME280;2697;42.144;24.794;2022-12-18T10:48:51;155502.06;;;11.38;100.00
5350;BME280;2697;42.144;24.794;2022-12-18T10:51:30;155494.13;;;11.35;100.00
5350;BME280;2697;42.144;24.794;2022-12-18T10:54:02;155467.78;;;11.25;100.00
5350;BME280;2697;42.144;24.794;2022-12-18T10:56:30;155482.28;;;11.30;100.00
5350;BME280;2697;42.144;24.794;2022-12-18T10:59:02;155475.72;;;11.28;100.00
5350;BME280;2697;42.144;24.794;2022-12-18T11:01:51;155457.25;;;11.21;100.00
5350;BME280;2697;42.144;24.794;2022-12-18T11:04:26;155449.38;;;11.18;100.00
5350;BME280;2697;42.144;24.794;2022-12-18T11:09:30;155428.28;;;11.09;100.00
5350;BME280;2697;42.144;24.794;2022-12-18T11:11:59;155383.50;;;10.92;100.00
5350;BME280;2697;42.144;24.794;2022-12-18T11:14:44;155378.22;;;10.90;100.00
5350;BME280;2697;42.144;24.794;2022-12-18T11:17:37;155395.31;;;10.97;100.00
5350;BME280;2697;42.144;24.794;2022-12-18T11:20:05;155383.50;;;10.92;100.00
5350;BME280;2697;42.144;24.794;2022-12-18T11:22:36;155336.06;;;10.74;100.00
5350;BME280;2697;42.144;24.794;2022-12-18T11:27:37;155291.28;;;10.56;100.00
5350;BME280;2697;42.144;24.794;2022-12-18T11:30:30;149800.34;;;10.44;100.00
5350;BME280;2697;42.144;24.794;2022-12-18T11:33:20;150916.81;;;10.46;100.00
5350;BME280;2697;42.144;24.794;2022-12-18T11:35:52;127795.09;;;10.38;100.00
5350;BME280;2697;42.144;24.794;2022-12-18T11:38:27;105318.25;;;10.23;100.00
5350;BME280;2697;42.144;24.794;2022-12-18T11:43:48;88826.13;;;10.25;100.00
5350;BME280;2697;42.144;24.794;2022-12-18T11:46:19;81966.47;;;10.20;100.00
5350;BME280;2697;42.144;24.794;2022-12-18T11:49:17;89858.19;;;10.27;100.00
5350;BME280;2697;42.144;24.794;2022-12-18T11:51:47;106692.25;;;10.21;100.00
5350;BME280;2697;42.144;24.794;2022-12-18T11:54:16;117715.78;;;10.14;100.00
5350;BME280;2697;42.144;24.794;2022-12-18T12:00:19;75457.47;;;10.13;100.00
5350;BME280;2697;42.144;24.794;2022-12-18T12:06:07;71710.91;;;10.22;100.00
5350;BME280;2697;42.144;24.794;2022-12-18T12:16:53;112904.84;;;10.25;100.00
5350;BME280;2697;42.144;24.794;2022-12-18T12:22:31;155259.72;;;10.44;100.00
5350;BME280;2697;42.144;24.794;2022-12-18T12:25:29;155267.59;;;10.47;100.00
5350;BME280;2697;42.144;24.794;2022-12-18T12:39:19;155291.28;;;10.56;100.00
5350;BME280;2697;42.144;24.794;2022-12-18T12:41:46;155262.34;;;10.45;100.00
5350;BME280;2697;42.144;24.794;2022-12-18T12:44:35;155304.47;;;10.62;100.00
5350;BME280;2697;42.144;24.794;2022-12-18T12:47:14;155264.97;;;10.46;100.00
5350;BME280;2697;42.144;24.794;2022-12-18T12:49:42;155296.56;;;10.59;100.00
5350;BME280;2697;42.144;24.794;2022-12-18T12:52:16;155257.09;;;10.43;100.00
5350;BME280;2697;42.144;24.794;2022-12-18T12:54:43;155254.47;;;10.42;100.00
5350;BME280;2697;42.144;24.794;2022-12-18T12:57:23;155236.00;;;10.35;100.00
5350;BME280;2697;42.144;24.794;2022-12-18T13:05:17;155295.25;;;10.58;100.00
5350;BME280;2697;42.144;24.794;2022-12-18T13:07:54;155259.72;;;10.44;100.00
5350;BME280;2697;42.144;24.794;2022-12-18T13:10:31;155262.34;;;10.45;100.00
5350;BME280;2697;42.144;24.794;2022-12-18T13:13:10;155264.97;;;10.46;100.00
5350;BME280;2697;42.144;24.794;2022-12-18T13:18:12;155287.34;;;10.55;100.00
5350;BME280;2697;42.144;24.794;2022-12-18T13:20:47;155300.50;;;10.60;100.00
5350;BME280;2697;42.144;24.794;2022-12-18T13:23:26;155295.25;;;10.58;100.00
5350;BME280;2697;42.144;24.794;2022-12-18T13:25:56;155246.53;;;10.39;100.00
5350;BME280;2697;42.144;24.794;2022-12-18T13:34:21;155280.78;;;10.52;100.00
5350;BME280;2697;42.144;24.794;2022-12-18T13:36:47;155286.03;;;10.54;100.00
5350;BME280;2697;42.144;24.794;2022-12-18T13:41:38;155293.91;;;10.57;100.00
5350;BME280;2697;42.144;24.794;2022-12-18T13:44:40;155255.78;;;10.43;100.00
5350;BME280;2697;42.144;24.794;2022-12-18T13:47:31;155292.59;;;10.57;100.00
5350;BME280;2697;42.144;24.794;2022-12-18T13:49:57;155301.81;;;10.61;100.00
5350;BME280;2697;42.144;24.794;2022-12-18T13:52:28;155280.78;;;10.52;100.00
5350;BME280;2697;42.144;24.794;2022-12-18T13:55:01;155266.28;;;10.47;100.00
5350;BME280;2697;42.144;24.794;2022-12-18T13:57:28;155251.78;;;10.41;100.00
5350;BME280;2697;42.144;24.794;2022-12-18T13:59:54;155237.31;;;10.36;100.00
5350;BME280;2697;42.144;24.794;2022-12-18T14:02:23;155201.75;;;10.22;100.00
5350;BME280;2697;42.144;24.794;2022-12-18T14:04:50;155185.94;;;10.16;100.00
5350;BME280;2697;42.144;24.794;2022-12-18T14:07:21;155175.38;;;10.12;100.00
5350;BME280;2697;42.144;24.794;2022-12-18T14:10:00;151719.09;;;9.93;100.00
5350;BME280;2697;42.144;24.794;2022-12-18T14:12:28;93916.53;;;9.88;100.00
5350;BME280;2697;42.144;24.794;2022-12-18T14:17:57;48153.94;;;9.42;100.00
5350;BME280;2697;42.144;24.794;2022-12-18T14:20:28;31230.81;;;9.27;100.00
5350;BME280;2697;42.144;24.794;2022-12-18T14:22:55;25504.13;;;9.42;100.00
5350;BME280;2697;42.144;24.794;2022-12-18T14:25:26;20784.28;;;9.32;100.00
5350;BME280;2697;42.144;24.794;2022-12-18T14:30:36;9688.97;;;9.15;100.00
5350;BME280;2697;42.144;24.794;2022-12-18T14:35:36;9684.72;;;8.91;100.00
5350;BME280;2697;42.144;24.794;2022-12-18T14:40:47;21102.81;;;8.82;100.00
5350;BME280;2697;42.144;24.794;2022-12-18T14:43:16;31880.06;;;8.79;100.00
5350;BME280;2697;42.144;24.794;2022-12-18T14:45:43;40997.28;;;8.79;100.00
5350;BME280;2697;42.144;24.794;2022-12-18T14:50:58;52171.06;;;8.81;100.00